sensor_id;sensor_type;location;lat;lon;timestamp;pressure;altitude;pressure_sealevel;temperature;humidity
72409;BME280;60402;48.082;11.628;2023-01-09T00:01:35;93741.97;;;3.41;93.07
72409;BME280;60402;48.082;11.628;2023-01-09T00:04:01;93711.91;;;3.32;92.00
72409;BME280;60402;48.082;11.628;2023-01-09T00:06:27;93699.84;;;3.36;91.77
72409;BME280;60402;48.082;11.628;2023-01-09T00:08:52;93723.13;;;3.45;91.50
72409;BME280;60402;48.082;11.628;2023-01-09T00:11:18;93736.91;;;3.65;91.54
72409;BME280;60402;48.082;11.628;2023-01-09T00:13:43;93755.72;;;3.77;90.92
72409;BME280;60402;48.082;11.628;2023-01-09T00:16:09;93741.81;;;3.61;91.47
72409;BME280;60402;48.082;11.628;2023-01-09T00:18:35;93747.75;;;3.63;91.26
72409;BME280;60402;48.082;11.628;2023-01-09T00:21:02;93760.41;;;3.80;90.69
72409;BME280;60402;48.082;11.628;2023-01-09T00:23:28;93746.72;;;3.57;91.36
72409;BME280;60402;48.082;11.628;2023-01-09T00:26:09;93789.94;;;3.81;91.80
72409;BME280;60402;48.082;11.628;2023-01-09T00:28:35;93760.41;;;3.68;91.43
72409;BME280;60402;48.082;11.628;2023-01-09T00:31:03;93781.22;;;3.79;91.04
72409;BME280;60402;48.082;11.628;2023-01-09T00:33:32;93759.50;;;3.71;90.46
72409;BME280;60402;48.082;11.628;2023-01-09T00:35:57;93776.63;;;3.85;90.04
72409;BME280;60402;48.082;11.628;2023-01-09T00:38:23;93778.66;;;3.85;90.30
72409;BME280;60402;48.082;11.628;2023-01-09T00:40:48;93775.53;;;3.83;89.79
72409;BME280;60402;48.082;11.628;2023-01-09T00:43:14;93781.91;;;3.83;90.47
72409;BME280;60402;48.082;11.628;2023-01-09T00:45:39;93755.59;;;3.68;90.36
72409;BME280;60402;48.082;11.628;2023-01-09T00:48:10;93772.28;;;3.84;90.11
72409;BME280;60402;48.082;11.628;2023-01-09T00:50:36;93779.97;;;4.09;89.28
72409;BME280;60402;48.082;11.628;2023-01-09T00:53:22;93776.91;;;4.04;89.84
72409;BME280;60402;48.082;11.628;2023-01-09T00:55:48;93778.19;;;4.16;89.88
72409;BME280;60402;48.082;11.628;2023-01-09T00:58:14;93713.00;;;3.64;89.67
72409;BME280;60402;48.082;11.628;2023-01-09T01:00:40;93772.00;;;4.08;90.23
72409;BME280;60402;48.082;11.628;2023-01-09T01:03:05;93769.66;;;4.06;90.38
72409;BME280;60402;48.082;11.628;2023-01-09T01:05:30;93755.22;;;3.95;90.73
72409;BME280;60402;48.082;11.628;2023-01-09T01:08:16;93733.25;;;3.81;91.08
72409;BME280;60402;48.082;11.628;2023-01-09T01:10:43;93772.66;;;3.99;92.36
72409;BME280;60402;48.082;11.628;2023-01-09T01:13:09;93766.16;;;3.90;92.70
72409;BME280;60402;48.082;11.628;2023-01-09T01:15:38;93755.50;;;3.84;92.76
72409;BME280;60402;48.082;11.628;2023-01-09T01:18:03;93780.13;;;3.90;93.39
72409;BME280;60402;48.082;11.628;2023-01-09T01:20:29;93762.00;;;3.81;93.59
72409;BME280;60402;48.082;11.628;2023-01-09T01:22:54;93769.84;;;3.87;93.45
72409;BME280;60402;48.082;11.628;2023-01-09T01:25:19;93760.09;;;3.78;93.43
72409;BME280;60402;48.082;11.628;2023-01-09T01:27:45;93771.63;;;3.93;93.09
72409;BME280;60402;48.082;11.628;2023-01-09T01:30:12;93736.50;;;3.79;93.63
72409;BME280;60402;48.082;11.628;2023-01-09T01:32:39;93751.28;;;3.93;92.73
72409;BME280;60402;48.082;11.628;2023-01-09T01:35:06;93739.03;;;4.16;90.90
72409;BME280;60402;48.082;11.628;2023-01-09T01:37:33;93741.84;;;4.16;91.20
72409;BME280;60402;48.082;11.628;2023-01-09T01:39:58;93735.00;;;4.17;90.24
72409;BME280;60402;48.082;11.628;2023-01-09T01:42:24;93734.66;;;4.02;91.46
72409;BME280;60402;48.082;11.628;2023-01-09T01:45:02;93745.47;;;4.00;92.53
72409;BME280;60402;48.082;11.628;2023-01-09T01:47:45;93743.38;;;3.91;92.39
72409;BME280;60402;48.082;11.628;2023-01-09T01:52:55;93745.06;;;4.01;92.68
72409;BME280;60402;48.082;11.628;2023-01-09T01:55:24;93754.69;;;4.00;93.09
72409;BME280;60402;48.082;11.628;2023-01-09T01:57:54;93754.38;;;4.24;91.97
72409;BME280;60402;48.082;11.628;2023-01-09T02:00:34;93733.22;;;4.23;91.00
72409;BME280;60402;48.082;11.628;2023-01-09T02:03:01;93724.81;;;3.97;91.15
72409;BME280;60402;48.082;11.628;2023-01-09T02:05:27;93726.59;;;3.91;92.48
72409;BME280;60402;48.082;11.628;2023-01-09T02:07:53;93731.16;;;3.85;92.73
72409;BME280;60402;48.082;11.628;2023-01-09T02:10:18;93765.72;;;4.04;92.89
72409;BME280;60402;48.082;11.628;2023-01-09T02:12:47;93739.75;;;3.78;93.50
72409;BME280;60402;48.082;11.628;2023-01-09T02:15:13;93767.84;;;3.87;94.19
72409;BME280;60402;48.082;11.628;2023-01-09T02:18:06;93756.41;;;3.81;93.99
72409;BME280;60402;48.082;11.628;2023-01-09T02:26:18;93777.97;;;3.81;94.03
72409;BME280;60402;48.082;11.628;2023-01-09T02:31:52;93779.50;;;3.69;95.56
72409;BME280;60402;48.082;11.628;2023-01-09T02:34:38;93764.16;;;3.61;95.65
72409;BME280;60402;48.082;11.628;2023-01-09T02:37:18;93769.09;;;3.70;96.14
72409;BME280;60402;48.082;11.628;2023-01-09T02:39:55;93764.25;;;3.57;96.37
72409;BME280;60402;48.082;11.628;2023-01-09T02:42:24;93772.97;;;3.89;94.90
72409;BME280;60402;48.082;11.628;2023-01-09T02:44:51;93746.53;;;3.64;96.29
72409;BME280;60402;48.082;11.628;2023-01-09T02:49:57;93730.63;;;3.61;96.39
72409;BME280;60402;48.082;11.628;2023-01-09T02:52:40;93746.34;;;3.84;97.08
72409;BME280;60402;48.082;11.628;2023-01-09T02:55:34;93751.84;;;3.88;97.01
72409;BME280;60402;48.082;11.628;2023-01-09T03:01:24;93748.94;;;3.91;97.63
72409;BME280;60402;48.082;11.628;2023-01-09T03:04:03;93757.75;;;3.90;98.11
72409;BME280;60402;48.082;11.628;2023-01-09T03:07:31;93740.31;;;3.85;98.83
72409;BME280;60402;48.082;11.628;2023-01-09T03:09:38;93739.91;;;4.00;97.45
72409;BME280;60402;48.082;11.628;2023-01-09T03:12:12;93723.00;;;3.78;99.46
72409;BME280;60402;48.082;11.628;2023-01-09T03:14:44;93726.00;;;3.83;98.72
72409;BME280;60402;48.082;11.628;2023-01-09T03:17:13;93756.78;;;3.96;99.77
72409;BME280;60402;48.082;11.628;2023-01-09T03:19:41;93722.41;;;3.70;100.00
72409;BME280;60402;48.082;11.628;2023-01-09T03:22:09;93736.19;;;3.90;99.88
72409;BME280;60402;48.082;11.628;2023-01-09T03:24:34;93762.81;;;3.95;100.00
72409;BME280;60402;48.082;11.628;2023-01-09T03:26:59;93740.09;;;3.80;100.00
72409;BME280;60402;48.082;11.628;2023-01-09T03:29:25;93742.53;;;3.78;100.00
72409;BME280;60402;48.082;11.628;2023-01-09T03:31:51;93711.38;;;3.79;100.00
72409;BME280;60402;48.082;11.628;2023-01-09T03:34:16;93734.34;;;4.13;98.90
72409;BME280;60402;48.082;11.628;2023-01-09T03:36:41;93728.94;;;3.93;99.88
72409;BME280;60402;48.082;11.628;2023-01-09T03:39:06;93746.94;;;3.92;100.00
72409;BME280;60402;48.082;11.628;2023-01-09T03:41:32;93741.22;;;3.82;100.00
72409;BME280;60402;48.082;11.628;2023-01-09T03:43:57;93735.03;;;3.75;100.00
72409;BME280;60402;48.082;11.628;2023-01-09T03:46:22;93744.47;;;3.94;100.00
72409;BME280;60402;48.082;11.628;2023-01-09T03:48:48;93714.72;;;3.74;100.00
72409;BME280;60402;48.082;11.628;2023-01-09T03:51:13;93736.00;;;3.97;100.00
72409;BME280;60402;48.082;11.628;2023-01-09T03:53:40;93748.41;;;3.96;100.00
72409;BME280;60402;48.082;11.628;2023-01-09T03:56:05;93747.50;;;3.87;100.00
72409;BME280;60402;48.082;11.628;2023-01-09T03:58:31;93748.69;;;3.85;100.00
72409;BME280;60402;48.082;11.628;2023-01-09T04:00:59;93755.97;;;3.83;100.00
72409;BME280;60402;48.082;11.628;2023-01-09T04:03:24;93739.66;;;3.81;100.00
72409;BME280;60402;48.082;11.628;2023-01-09T04:05:51;93755.41;;;3.88;100.00
72409;BME280;60402;48.082;11.628;2023-01-09T04:08:17;93731.22;;;3.69;100.00
72409;BME280;60402;48.082;11.628;2023-01-09T04:10:49;93777.00;;;3.88;100.00
72409;BME280;60402;48.082;11.628;2023-01-09T04:13:14;93739.25;;;3.67;100.00
72409;BME280;60402;48.082;11.628;2023-01-09T04:15:40;93768.25;;;3.73;100.00
72409;BME280;60402;48.082;11.628;2023-01-09T04:18:06;93767.53;;;3.69;100.00
72409;BME280;60402;48.082;11.628;2023-01-09T04:20:31;93789.59;;;3.79;100.00
72409;BME280;60402;48.082;11.628;2023-01-09T04:22:57;93755.44;;;3.59;100.00
72409;BME280;60402;48.082;11.628;2023-01-09T04:25:24;93779.84;;;3.71;100.00
72409;BME280;60402;48.082;11.628;2023-01-09T04:27:49;93782.53;;;3.75;100.00
72409;BME280;60402;48.082;11.628;2023-01-09T04:30:15;93753.06;;;3.57;100.00
72409;BME280;60402;48.082;11.628;2023-01-09T04:32:40;93780.09;;;3.77;100.00
72409;BME280;60402;48.082;11.628;2023-01-09T04:35:06;93780.44;;;3.79;100.00
72409;BME280;60402;48.082;11.628;2023-01-09T04:37:31;93742.03;;;3.54;100.00
72409;BME280;60402;48.082;11.628;2023-01-09T04:39:57;93778.19;;;3.74;100.00
72409;BME280;60402;48.082;11.628;2023-01-09T04:42:22;93809.66;;;3.91;100.00
72409;BME280;60402;48.082;11.628;2023-01-09T04:44:47;93782.75;;;3.68;100.00
72409;BME280;60402;48.082;11.628;2023-01-09T04:47:17;93810.28;;;3.82;100.00
72409;BME280;60402;48.082;11.628;2023-01-09T04:49:42;93808.28;;;3.82;100.00
72409;BME280;60402;48.082;11.628;2023-01-09T04:52:08;93824.97;;;3.99;100.00
72409;BME280;60402;48.082;11.628;2023-01-09T04:54:33;93809.34;;;4.01;100.00
72409;BME280;60402;48.082;11.628;2023-01-09T04:56:58;93804.84;;;4.04;100.00
72409;BME280;60402;48.082;11.628;2023-01-09T04:59:24;93831.53;;;4.21;100.00
72409;BME280;60402;48.082;11.628;2023-01-09T05:01:49;93836.34;;;4.21;100.00
72409;BME280;60402;48.082;11.628;2023-01-09T05:04:16;93841.84;;;4.24;100.00
72409;BME280;60402;48.082;11.628;2023-01-09T05:06:41;93849.31;;;4.27;100.00
72409;BME280;60402;48.082;11.628;2023-01-09T05:09:06;93829.88;;;4.24;100.00
72409;BME280;60402;48.082;11.628;2023-01-09T05:11:32;93846.88;;;4.42;100.00
72409;BME280;60402;48.082;11.628;2023-01-09T05:13:57;93854.50;;;4.42;100.00
72409;BME280;60402;48.082;11.628;2023-01-09T05:16:22;93881.97;;;4.72;100.00
72409;BME280;60402;48.082;11.628;2023-01-09T05:18:48;93872.78;;;4.84;100.00
72409;BME280;60402;48.082;11.628;2023-01-09T05:21:13;93893.75;;;5.05;100.00
72409;BME280;60402;48.082;11.628;2023-01-09T05:23:39;93878.06;;;5.08;99.85
72409;BME280;60402;48.082;11.628;2023-01-09T05:26:04;93911.88;;;5.26;99.43
72409;BME280;60402;48.082;11.628;2023-01-09T05:28:30;93928.47;;;5.46;98.44
72409;BME280;60402;48.082;11.628;2023-01-09T05:30:55;93917.59;;;5.48;96.56
72409;BME280;60402;48.082;11.628;2023-01-09T05:33:21;93946.25;;;5.78;95.87
72409;BME280;60402;48.082;11.628;2023-01-09T05:35:46;93944.94;;;5.70;94.97
72409;BME280;60402;48.082;11.628;2023-01-09T05:38:12;93953.56;;;5.75;93.82
72409;BME280;60402;48.082;11.628;2023-01-09T05:40:37;93968.34;;;5.76;94.36
72409;BME280;60402;48.082;11.628;2023-01-09T05:43:02;93954.91;;;5.71;93.65
72409;BME280;60402;48.082;11.628;2023-01-09T05:45:27;93970.59;;;5.81;92.41
72409;BME280;60402;48.082;11.628;2023-01-09T05:47:53;93974.84;;;5.85;92.75
72409;BME280;60402;48.082;11.628;2023-01-09T05:50:18;93964.66;;;5.92;91.66
72409;BME280;60402;48.082;11.628;2023-01-09T05:52:43;93977.84;;;5.91;90.80
72409;BME280;60402;48.082;11.628;2023-01-09T05:55:10;93934.50;;;5.70;90.58
72409;BME280;60402;48.082;11.628;2023-01-09T05:57:36;93980.56;;;5.95;88.66
72409;BME280;60402;48.082;11.628;2023-01-09T06:00:03;93984.34;;;5.88;88.33
72409;BME280;60402;48.082;11.628;2023-01-09T06:02:29;93992.13;;;5.97;88.04
72409;BME280;60402;48.082;11.628;2023-01-09T06:04:54;93951.06;;;5.64;86.21
72409;BME280;60402;48.082;11.628;2023-01-09T06:07:19;93986.84;;;5.86;86.70
72409;BME280;60402;48.082;11.628;2023-01-09T06:09:45;93921.53;;;5.38;87.71
72409;BME280;60402;48.082;11.628;2023-01-09T06:12:10;93935.50;;;5.63;85.92
72409;BME280;60402;48.082;11.628;2023-01-09T06:14:38;93963.53;;;5.76;85.68
72409;BME280;60402;48.082;11.628;2023-01-09T06:17:04;93994.13;;;5.83;84.08
72409;BME280;60402;48.082;11.628;2023-01-09T06:19:29;93967.00;;;5.68;84.81
72409;BME280;60402;48.082;11.628;2023-01-09T06:21:54;93953.81;;;5.55;84.70
72409;BME280;60402;48.082;11.628;2023-01-09T06:24:20;93980.22;;;5.67;84.75
72409;BME280;60402;48.082;11.628;2023-01-09T06:26:45;93983.81;;;5.68;83.31
72409;BME280;60402;48.082;11.628;2023-01-09T06:29:10;94001.88;;;5.79;82.71
72409;BME280;60402;48.082;11.628;2023-01-09T06:31:36;94000.06;;;5.73;82.45
72409;BME280;60402;48.082;11.628;2023-01-09T06:34:01;94030.44;;;5.87;82.06
72409;BME280;60402;48.082;11.628;2023-01-09T06:36:26;94031.47;;;5.80;83.26
72409;BME280;60402;48.082;11.628;2023-01-09T06:38:52;94035.38;;;5.83;82.49
72409;BME280;60402;48.082;11.628;2023-01-09T06:41:17;94031.56;;;5.77;81.34
72409;BME280;60402;48.082;11.628;2023-01-09T06:43:43;94048.75;;;5.79;82.84
72409;BME280;60402;48.082;11.628;2023-01-09T06:46:08;94029.78;;;5.70;83.00
72409;BME280;60402;48.082;11.628;2023-01-09T06:48:34;94063.09;;;5.81;82.65
72409;BME280;60402;48.082;11.628;2023-01-09T06:50:59;94057.47;;;5.68;83.02
72409;BME280;60402;48.082;11.628;2023-01-09T06:53:24;94062.09;;;5.75;82.43
72409;BME280;60402;48.082;11.628;2023-01-09T06:55:50;94063.44;;;5.70;82.41
72409;BME280;60402;48.082;11.628;2023-01-09T06:58:15;94040.66;;;5.55;82.60
72409;BME280;60402;48.082;11.628;2023-01-09T07:00:41;94058.38;;;5.65;83.58
72409;BME280;60402;48.082;11.628;2023-01-09T07:03:06;94052.63;;;5.69;84.98
72409;BME280;60402;48.082;11.628;2023-01-09T07:05:37;94071.59;;;5.90;84.16
72409;BME280;60402;48.082;11.628;2023-01-09T07:08:04;94073.56;;;5.93;83.06
72409;BME280;60402;48.082;11.628;2023-01-09T07:10:29;94077.47;;;6.08;82.32
72409;BME280;60402;48.082;11.628;2023-01-09T07:12:54;94058.63;;;5.83;81.10
72409;BME280;60402;48.082;11.628;2023-01-09T07:15:19;94088.56;;;5.99;81.59
72409;BME280;60402;48.082;11.628;2023-01-09T07:17:45;94081.03;;;5.71;82.62
72409;BME280;60402;48.082;11.628;2023-01-09T07:20:10;94082.25;;;5.70;83.06
72409;BME280;60402;48.082;11.628;2023-01-09T07:22:36;94080.81;;;5.65;82.05
72409;BME280;60402;48.082;11.628;2023-01-09T07:25:01;94098.84;;;5.77;82.86
72409;BME280;60402;48.082;11.628;2023-01-09T07:27:26;94077.97;;;5.52;83.23
72409;BME280;60402;48.082;11.628;2023-01-09T07:29:51;94104.81;;;5.79;81.54
72409;BME280;60402;48.082;11.628;2023-01-09T07:32:17;94111.63;;;5.78;81.82
72409;BME280;60402;48.082;11.628;2023-01-09T07:34:43;94131.47;;;5.71;81.02
72409;BME280;60402;48.082;11.628;2023-01-09T07:37:08;94103.50;;;5.54;81.28
72409;BME280;60402;48.082;11.628;2023-01-09T07:39:33;94096.56;;;5.46;81.68
72409;BME280;60402;48.082;11.628;2023-01-09T07:41:59;94143.00;;;5.73;81.50
72409;BME280;60402;48.082;11.628;2023-01-09T07:44:24;94111.72;;;5.61;80.89
72409;BME280;60402;48.082;11.628;2023-01-09T07:46:49;94107.31;;;5.48;81.74
72409;BME280;60402;48.082;11.628;2023-01-09T07:49:15;94106.28;;;5.29;81.20
72409;BME280;60402;48.082;11.628;2023-01-09T07:51:40;94146.03;;;5.66;80.53
72409;BME280;60402;48.082;11.628;2023-01-09T07:54:08;94124.13;;;5.48;80.29
72409;BME280;60402;48.082;11.628;2023-01-09T07:56:34;94122.66;;;5.43;80.00
72409;BME280;60402;48.082;11.628;2023-01-09T07:58:59;94161.63;;;5.67;80.34
72409;BME280;60402;48.082;11.628;2023-01-09T08:01:53;94062.38;;;4.97;80.40
72409;BME280;60402;48.082;11.628;2023-01-09T08:05:03;94180.50;;;5.79;80.07
72409;BME280;60402;48.082;11.628;2023-01-09T08:08:19;94180.81;;;5.81;79.34
72409;BME280;60402;48.082;11.628;2023-01-09T08:11:37;94168.56;;;5.62;78.64
72409;BME280;60402;48.082;11.628;2023-01-09T08:38:32;94236.69;;;5.59;76.12
72409;BME280;60402;48.082;11.628;2023-01-09T08:55:04;94151.78;;;5.04;73.09
72409;BME280;60402;48.082;11.628;2023-01-09T08:57:35;94101.34;;;4.75;73.72
72409;BME280;60402;48.082;11.628;2023-01-09T09:00:01;94184.78;;;5.25;73.31
72409;BME280;60402;48.082;11.628;2023-01-09T09:02:26;94236.69;;;5.59;73.80
72409;BME280;60402;48.082;11.628;2023-01-09T09:04:51;94246.16;;;5.65;73.04
72409;BME280;60402;48.082;11.628;2023-01-09T09:07:18;94250.91;;;5.81;71.12
72409;BME280;60402;48.082;11.628;2023-01-09T09:09:54;94197.00;;;5.31;70.73
72409;BME280;60402;48.082;11.628;2023-01-09T09:12:20;94226.44;;;5.81;70.62
72409;BME280;60402;48.082;11.628;2023-01-09T09:14:46;94246.63;;;5.76;70.05
72409;BME280;60402;48.082;11.628;2023-01-09T09:17:30;94231.47;;;5.74;69.84
72409;BME280;60402;48.082;11.628;2023-01-09T09:19:57;94208.25;;;5.60;68.67
72409;BME280;60402;48.082;11.628;2023-01-09T09:22:22;94249.97;;;5.71;69.25
72409;BME280;60402;48.082;11.628;2023-01-09T09:24:47;94237.28;;;5.67;69.03
72409;BME280;60402;48.082;11.628;2023-01-09T09:27:13;94255.47;;;5.75;68.38
72409;BME280;60402;48.082;11.628;2023-01-09T09:29:38;94242.75;;;5.57;68.51
72409;BME280;60402;48.082;11.628;2023-01-09T09:32:03;94244.28;;;5.75;69.17
72409;BME280;60402;48.082;11.628;2023-01-09T09:34:29;94247.75;;;5.79;68.73
72409;BME280;60402;48.082;11.628;2023-01-09T09:36:54;94256.28;;;6.04;68.64
72409;BME280;60402;48.082;11.628;2023-01-09T09:39:19;94272.75;;;6.02;67.89
72409;BME280;60402;48.082;11.628;2023-01-09T09:45:05;94271.66;;;6.12;67.36
72409;BME280;60402;48.082;11.628;2023-01-09T09:56:22;94228.38;;;5.84;68.41
72409;BME280;60402;48.082;11.628;2023-01-09T09:59:16;94256.84;;;6.12;68.09
72409;BME280;60402;48.082;11.628;2023-01-09T10:01:49;94268.72;;;6.16;67.43
72409;BME280;60402;48.082;11.628;2023-01-09T10:04:17;94246.28;;;6.03;67.48
72409;BME280;60402;48.082;11.628;2023-01-09T10:06:47;94253.47;;;6.04;68.11
72409;BME280;60402;48.082;11.628;2023-01-09T10:09:35;94234.22;;;5.90;68.50
72409;BME280;60402;48.082;11.628;2023-01-09T10:14:29;94231.47;;;6.03;67.37
72409;BME280;60402;48.082;11.628;2023-01-09T10:17:25;94250.69;;;6.17;66.85
72409;BME280;60402;48.082;11.628;2023-01-09T10:25:51;94225.75;;;6.06;67.41
72409;BME280;60402;48.082;11.628;2023-01-09T10:31:21;94239.34;;;6.21;67.18
72409;BME280;60402;48.082;11.628;2023-01-09T10:34:22;94243.50;;;6.16;67.10
72409;BME280;60402;48.082;11.628;2023-01-09T10:42:22;94222.97;;;6.19;67.03
72409;BME280;60402;48.082;11.628;2023-01-09T10:44:55;94218.94;;;6.20;66.64
72409;BME280;60402;48.082;11.628;2023-01-09T10:47:31;94246.44;;;6.38;66.75
72409;BME280;60402;48.082;11.628;2023-01-09T10:53:33;94218.63;;;6.31;65.82
72409;BME280;60402;48.082;11.628;2023-01-09T10:56:24;94233.09;;;6.42;66.32
72409;BME280;60402;48.082;11.628;2023-01-09T10:58:51;94220.88;;;6.36;66.53
72409;BME280;60402;48.082;11.628;2023-01-09T11:01:23;94210.97;;;6.44;64.73
72409;BME280;60402;48.082;11.628;2023-01-09T11:03:49;94229.84;;;6.44;65.33
72409;BME280;60402;48.082;11.628;2023-01-09T11:06:23;94228.81;;;6.63;64.88
72409;BME280;60402;48.082;11.628;2023-01-09T11:08:53;94231.53;;;6.66;64.69
72409;BME280;60402;48.082;11.628;2023-01-09T11:11:40;94222.56;;;6.59;64.41
72409;BME280;60402;48.082;11.628;2023-01-09T11:14:18;94196.41;;;6.36;65.01
72409;BME280;60402;48.082;11.628;2023-01-09T11:19:17;94221.78;;;6.46;64.70
72409;BME280;60402;48.082;11.628;2023-01-09T11:21:42;94244.44;;;6.51;64.69
72409;BME280;60402;48.082;11.628;2023-01-09T11:26:44;94234.88;;;6.49;63.94
72409;BME280;60402;48.082;11.628;2023-01-09T11:29:12;94223.13;;;6.41;63.67
72409;BME280;60402;48.082;11.628;2023-01-09T11:31:42;94231.31;;;6.35;64.31
72409;BME280;60402;48.082;11.628;2023-01-09T11:34:20;94192.34;;;6.12;64.38
72409;BME280;60402;48.082;11.628;2023-01-09T11:36:46;94234.34;;;6.41;64.57
72409;BME280;60402;48.082;11.628;2023-01-09T11:39:23;94233.09;;;6.42;63.92
72409;BME280;60402;48.082;11.628;2023-01-09T11:41:54;94218.72;;;6.27;63.65
72409;BME280;60402;48.082;11.628;2023-01-09T11:44:21;94236.91;;;6.48;63.62
72409;BME280;60402;48.082;11.628;2023-01-09T11:46:47;94213.91;;;6.28;63.79
72409;BME280;60402;48.082;11.628;2023-01-09T11:49:21;94223.09;;;6.54;62.63
72409;BME280;60402;48.082;11.628;2023-01-09T11:52:10;94211.53;;;6.39;63.06
72409;BME280;60402;48.082;11.628;2023-01-09T11:54:40;94219.06;;;6.55;63.17
72409;BME280;60402;48.082;11.628;2023-01-09T11:57:10;94222.09;;;6.60;62.34
72409;BME280;60402;48.082;11.628;2023-01-09T11:59:36;94212.69;;;6.54;63.19
72409;BME280;60402;48.082;11.628;2023-01-09T12:04:56;94223.22;;;6.76;62.34
72409;BME280;60402;48.082;11.628;2023-01-09T12:10:36;94231.88;;;6.69;62.32
72409;BME280;60402;48.082;11.628;2023-01-09T12:21:12;94239.16;;;6.66;62.85
72409;BME280;60402;48.082;11.628;2023-01-09T12:26:17;94219.66;;;6.50;63.27
72409;BME280;60402;48.082;11.628;2023-01-09T12:40:05;94249.16;;;6.80;61.62
72409;BME280;60402;48.082;11.628;2023-01-09T12:42:43;94246.81;;;6.78;61.97
72409;BME280;60402;48.082;11.628;2023-01-09T12:47:49;94231.31;;;6.74;62.03
72409;BME280;60402;48.082;11.628;2023-01-09T12:50:41;94243.09;;;6.81;62.75
72409;BME280;60402;48.082;11.628;2023-01-09T12:53:32;94247.25;;;6.89;62.52
72409;BME280;60402;48.082;11.628;2023-01-09T12:56:06;94245.09;;;6.81;61.68
72409;BME280;60402;48.082;11.628;2023-01-09T12:58:50;94245.56;;;6.92;61.83
72409;BME280;60402;48.082;11.628;2023-01-09T13:01:23;94215.03;;;6.56;62.09
72409;BME280;60402;48.082;11.628;2023-01-09T13:04:10;94252.63;;;6.84;62.01
72409;BME280;60402;48.082;11.628;2023-01-09T13:06:39;94244.09;;;6.87;62.88
72409;BME280;60402;48.082;11.628;2023-01-09T13:11:42;94236.25;;;6.82;62.17
72409;BME280;60402;48.082;11.628;2023-01-09T13:14:24;94189.00;;;6.55;61.42
72409;BME280;60402;48.082;11.628;2023-01-09T13:16:52;94210.06;;;6.73;61.79
72409;BME280;60402;48.082;11.628;2023-01-09T13:21:49;94220.63;;;6.81;62.64
72409;BME280;60402;48.082;11.628;2023-01-09T13:24:53;94198.75;;;6.63;61.78
72409;BME280;60402;48.082;11.628;2023-01-09T13:27:23;94222.53;;;6.84;60.95
72409;BME280;60402;48.082;11.628;2023-01-09T13:30:02;94222.31;;;6.79;61.17
72409;BME280;60402;48.082;11.628;2023-01-09T13:35:29;94194.72;;;6.52;61.73
72409;BME280;60402;48.082;11.628;2023-01-09T13:37:58;94189.66;;;6.47;61.88
72409;BME280;60402;48.082;11.628;2023-01-09T13:40:26;94217.38;;;6.70;61.29
72409;BME280;60402;48.082;11.628;2023-01-09T13:43:01;94250.81;;;6.77;61.75
72409;BME280;60402;48.082;11.628;2023-01-09T13:45:30;94224.78;;;6.51;61.77
72409;BME280;60402;48.082;11.628;2023-01-09T13:48:37;94245.00;;;6.72;61.28
72409;BME280;60402;48.082;11.628;2023-01-09T14:22:02;94242.41;;;6.39;63.72
72409;BME280;60402;48.082;11.628;2023-01-09T14:34:37;94264.41;;;6.40;63.20
72409;BME280;60402;48.082;11.628;2023-01-09T14:37:23;94236.41;;;6.11;62.49
72409;BME280;60402;48.082;11.628;2023-01-09T14:40:17;94215.78;;;6.05;62.44
72409;BME280;60402;48.082;11.628;2023-01-09T14:46:04;94271.69;;;6.38;62.45
72409;BME280;60402;48.082;11.628;2023-01-09T14:55:00;94243.06;;;6.18;63.17
72409;BME280;60402;48.082;11.628;2023-01-09T14:57:47;94267.06;;;6.19;63.07
72409;BME280;60402;48.082;11.628;2023-01-09T15:00:23;94206.91;;;5.94;63.08
72409;BME280;60402;48.082;11.628;2023-01-09T15:03:03;94151.22;;;5.38;63.59
72409;BME280;60402;48.082;11.628;2023-01-09T15:11:33;94272.91;;;6.24;63.85
72409;BME280;60402;48.082;11.628;2023-01-09T15:14:54;94226.66;;;6.03;62.56
72409;BME280;60402;48.082;11.628;2023-01-09T15:18:26;94238.84;;;5.97;63.02
72409;BME280;60402;48.082;11.628;2023-01-09T15:21:16;94140.91;;;5.35;62.64
72409;BME280;60402;48.082;11.628;2023-01-09T15:27:26;94282.22;;;6.21;64.25
72409;BME280;60402;48.082;11.628;2023-01-09T15:30:19;94196.25;;;5.60;64.30
72409;BME280;60402;48.082;11.628;2023-01-09T15:36:32;94288.72;;;6.18;63.42
72409;BME280;60402;48.082;11.628;2023-01-09T15:39:17;94196.66;;;5.58;64.13
72409;BME280;60402;48.082;11.628;2023-01-09T15:41:58;94288.72;;;6.18;65.00
72409;BME280;60402;48.082;11.628;2023-01-09T15:45:01;94161.19;;;5.39;64.52
72409;BME280;60402;48.082;11.628;2023-01-09T15:47:53;94218.41;;;5.54;65.43
72409;BME280;60402;48.082;11.628;2023-01-09T15:50:40;94201.56;;;5.42;65.63
72409;BME280;60402;48.082;11.628;2023-01-09T15:53:11;94292.47;;;5.99;65.40
72409;BME280;60402;48.082;11.628;2023-01-09T15:55:38;94251.84;;;5.61;65.86
72409;BME280;60402;48.082;11.628;2023-01-09T15:58:24;94270.63;;;5.77;66.34
72409;BME280;60402;48.082;11.628;2023-01-09T16:00:55;94314.75;;;5.89;66.16
72409;BME280;60402;48.082;11.628;2023-01-09T16:03:22;94318.16;;;5.97;66.37
72409;BME280;60402;48.082;11.628;2023-01-09T16:05:54;94311.66;;;6.00;65.92
72409;BME280;60402;48.082;11.628;2023-01-09T16:08:25;94309.31;;;5.82;66.59
72409;BME280;60402;48.082;11.628;2023-01-09T16:10:56;94315.34;;;5.97;66.82
72409;BME280;60402;48.082;11.628;2023-01-09T16:13:24;94333.06;;;5.94;67.72
72409;BME280;60402;48.082;11.628;2023-01-09T16:15:50;94337.13;;;5.93;68.57
72409;BME280;60402;48.082;11.628;2023-01-09T16:18:19;94345.06;;;5.95;67.77
72409;BME280;60402;48.082;11.628;2023-01-09T16:20:45;94346.22;;;5.81;69.46
72409;BME280;60402;48.082;11.628;2023-01-09T16:23:36;94323.91;;;5.61;70.13
72409;BME280;60402;48.082;11.628;2023-01-09T16:26:14;94337.72;;;5.68;70.22
72409;BME280;60402;48.082;11.628;2023-01-09T16:28:43;94311.56;;;5.58;69.94
72409;BME280;60402;48.082;11.628;2023-01-09T16:31:24;94324.50;;;5.69;69.62
72409;BME280;60402;48.082;11.628;2023-01-09T16:34:03;94331.25;;;5.71;70.40